Charter Quote
Worldwide +1-877-727-2538 Call
Select Language Lang
SAFETY RELIABILITY EXPERIENCE

Alpnach Airport (LSMA) - Jet Charter Services

AIRPORT INFORMATION
ICAOLSMA
LOCATIONAlpnach, Switzerland
FACILITY TYPEAIRPORT
Runway Length (ft) Width (ft) Surface Type Elevation (ft)
19/01 4920 130 ASP 1443.04918

At Paramount Business Jets you can hire chartered private jets to and from Alpnach Airport with as little as 4 hours of notice. All flights booked via Paramount Business Jets are operated by certified direct air carriers that meet and exceed the FAA part 135 and 121 protocol or a foreign equivalent safety authority. Furthermore, Paramount Business Jets subscribes to ARGUS for their third party safety checks of operators, aircraft, and crews prior each and every flight to and from Alpnach Airport and worldwide.

  • Quote a trip using Alpnach Airport or call us 24/7 - 365 days a year at +1-877-727-2538.
Questions? Call +1-877-727-2538

METAR Weather Data at Alpnach Airport, LSMA

STATIONLSMA
OBSERVEDWed Jan 23, 21:50 UTC
NOWWed Jan 23, 22:06 UTC
AGE16 min ago
WINDvaries at 2 mph
METARLSMA 232150Z AUTO VRB02KT 8000NDV BKN031 OVC036 M01/M04 Q0999 RMK

Call us on +1-877-727-2538 (24 Hours) to Hire a Private Jet or Get a Quick Quote.

Find Airports Near any Location

Processing
...